sensor_id;sensor_type;location;lat;lon;timestamp;temperature;humidity
27306;DHT22;14792;50.886;6.468;2023-02-11T00:02:06;6.70;99.90
27306;DHT22;14792;50.886;6.468;2023-02-11T00:05:08;6.60;99.90
27306;DHT22;14792;50.886;6.468;2023-02-11T00:08:09;6.60;99.90
27306;DHT22;14792;50.886;6.468;2023-02-11T00:11:14;6.50;99.90
27306;DHT22;14792;50.886;6.468;2023-02-11T00:14:15;6.50;99.90
27306;DHT22;14792;50.886;6.468;2023-02-11T00:17:17;6.40;99.90
27306;DHT22;14792;50.886;6.468;2023-02-11T00:20:18;6.40;99.90
27306;DHT22;14792;50.886;6.468;2023-02-11T00:23:20;6.50;99.90
27306;DHT22;14792;50.886;6.468;2023-02-11T00:26:23;6.30;99.90
27306;DHT22;14792;50.886;6.468;2023-02-11T00:29:23;6.30;99.90
27306;DHT22;14792;50.886;6.468;2023-02-11T00:32:25;6.20;99.90
27306;DHT22;14792;50.886;6.468;2023-02-11T00:35:26;6.10;99.90
27306;DHT22;14792;50.886;6.468;2023-02-11T00:38:28;6.10;99.90
27306;DHT22;14792;50.886;6.468;2023-02-11T00:41:29;6.00;99.90
27306;DHT22;14792;50.886;6.468;2023-02-11T00:44:31;6.00;99.90
27306;DHT22;14792;50.886;6.468;2023-02-11T00:47:33;6.00;99.90
27306;DHT22;14792;50.886;6.468;2023-02-11T00:50:34;6.00;99.90
27306;DHT22;14792;50.886;6.468;2023-02-11T00:53:36;5.90;99.90
27306;DHT22;14792;50.886;6.468;2023-02-11T00:56:38;5.90;99.90
27306;DHT22;14792;50.886;6.468;2023-02-11T00:59:40;5.90;99.90
27306;DHT22;14792;50.886;6.468;2023-02-11T01:02:42;5.80;99.90
27306;DHT22;14792;50.886;6.468;2023-02-11T01:05:43;5.80;99.90
27306;DHT22;14792;50.886;6.468;2023-02-11T01:08:45;5.70;99.90
27306;DHT22;14792;50.886;6.468;2023-02-11T01:11:46;5.70;99.90
27306;DHT22;14792;50.886;6.468;2023-02-11T01:14:48;5.60;99.90
27306;DHT22;14792;50.886;6.468;2023-02-11T01:17:50;5.60;99.90
27306;DHT22;14792;50.886;6.468;2023-02-11T01:20:51;5.50;99.90
27306;DHT22;14792;50.886;6.468;2023-02-11T01:23:53;5.60;99.90
27306;DHT22;14792;50.886;6.468;2023-02-11T01:26:54;5.60;99.90
27306;DHT22;14792;50.886;6.468;2023-02-11T01:29:56;5.50;99.90
27306;DHT22;14792;50.886;6.468;2023-02-11T01:32:57;5.50;99.90
27306;DHT22;14792;50.886;6.468;2023-02-11T01:36:00;5.50;99.90
27306;DHT22;14792;50.886;6.468;2023-02-11T01:39:01;5.50;99.90
27306;DHT22;14792;50.886;6.468;2023-02-11T01:42:02;5.50;99.90
27306;DHT22;14792;50.886;6.468;2023-02-11T01:48:36;5.60;99.90
27306;DHT22;14792;50.886;6.468;2023-02-11T01:51:43;5.60;99.90
27306;DHT22;14792;50.886;6.468;2023-02-11T01:54:48;5.60;99.90
27306;DHT22;14792;50.886;6.468;2023-02-11T01:58:06;5.70;99.90
27306;DHT22;14792;50.886;6.468;2023-02-11T02:01:08;5.70;99.90
27306;DHT22;14792;50.886;6.468;2023-02-11T02:04:09;5.80;99.90
27306;DHT22;14792;50.886;6.468;2023-02-11T02:07:13;5.80;99.90
27306;DHT22;14792;50.886;6.468;2023-02-11T02:10:14;5.80;99.90
27306;DHT22;14792;50.886;6.468;2023-02-11T02:13:14;5.90;99.90
27306;DHT22;14792;50.886;6.468;2023-02-11T02:16:17;5.90;99.90
27306;DHT22;14792;50.886;6.468;2023-02-11T02:22:32;5.90;99.90
27306;DHT22;14792;50.886;6.468;2023-02-11T02:25:34;5.90;99.90
27306;DHT22;14792;50.886;6.468;2023-02-11T02:28:43;5.80;99.90
27306;DHT22;14792;50.886;6.468;2023-02-11T02:38:11;5.80;99.90
27306;DHT22;14792;50.886;6.468;2023-02-11T02:41:13;5.80;99.90
27306;DHT22;14792;50.886;6.468;2023-02-11T02:44:13;5.80;99.90
27306;DHT22;14792;50.886;6.468;2023-02-11T02:47:15;5.80;99.90
27306;DHT22;14792;50.886;6.468;2023-02-11T02:50:17;5.80;99.90
27306;DHT22;14792;50.886;6.468;2023-02-11T02:53:31;5.70;99.90
27306;DHT22;14792;50.886;6.468;2023-02-11T02:56:57;5.60;99.90
27306;DHT22;14792;50.886;6.468;2023-02-11T02:59:59;5.60;99.90
27306;DHT22;14792;50.886;6.468;2023-02-11T03:06:07;5.60;99.90
27306;DHT22;14792;50.886;6.468;2023-02-11T03:09:25;5.60;99.90
27306;DHT22;14792;50.886;6.468;2023-02-11T03:12:26;5.60;99.90
27306;DHT22;14792;50.886;6.468;2023-02-11T03:15:28;5.50;99.90
27306;DHT22;14792;50.886;6.468;2023-02-11T03:18:29;5.50;99.90
27306;DHT22;14792;50.886;6.468;2023-02-11T03:21:31;5.50;99.90
27306;DHT22;14792;50.886;6.468;2023-02-11T03:24:34;5.50;99.90
27306;DHT22;14792;50.886;6.468;2023-02-11T03:27:49;5.40;99.90
27306;DHT22;14792;50.886;6.468;2023-02-11T03:31:04;5.30;99.90
27306;DHT22;14792;50.886;6.468;2023-02-11T03:37:12;5.30;99.90
27306;DHT22;14792;50.886;6.468;2023-02-11T03:40:18;5.30;99.90
27306;DHT22;14792;50.886;6.468;2023-02-11T03:43:15;5.30;99.90
27306;DHT22;14792;50.886;6.468;2023-02-11T03:46:17;5.30;99.90
27306;DHT22;14792;50.886;6.468;2023-02-11T03:49:18;5.30;99.90
27306;DHT22;14792;50.886;6.468;2023-02-11T03:52:19;5.40;99.90
27306;DHT22;14792;50.886;6.468;2023-02-11T03:55:20;5.30;99.90
27306;DHT22;14792;50.886;6.468;2023-02-11T03:58:22;5.40;99.90
27306;DHT22;14792;50.886;6.468;2023-02-11T04:01:24;5.50;99.90
27306;DHT22;14792;50.886;6.468;2023-02-11T04:04:25;5.50;99.90
27306;DHT22;14792;50.886;6.468;2023-02-11T04:07:27;5.50;99.90
27306;DHT22;14792;50.886;6.468;2023-02-11T04:10:29;5.60;99.90
27306;DHT22;14792;50.886;6.468;2023-02-11T04:13:31;5.60;99.90
27306;DHT22;14792;50.886;6.468;2023-02-11T04:16:33;5.60;99.90
27306;DHT22;14792;50.886;6.468;2023-02-11T04:19:34;5.70;99.90
27306;DHT22;14792;50.886;6.468;2023-02-11T04:22:36;5.70;99.90
27306;DHT22;14792;50.886;6.468;2023-02-11T04:25:37;5.70;99.90
27306;DHT22;14792;50.886;6.468;2023-02-11T04:28:39;5.70;99.90
27306;DHT22;14792;50.886;6.468;2023-02-11T04:31:41;5.70;99.90
27306;DHT22;14792;50.886;6.468;2023-02-11T04:34:43;5.70;99.90
27306;DHT22;14792;50.886;6.468;2023-02-11T04:37:44;5.70;99.90
27306;DHT22;14792;50.886;6.468;2023-02-11T04:40:45;5.80;99.90
27306;DHT22;14792;50.886;6.468;2023-02-11T04:43:47;5.80;99.90
27306;DHT22;14792;50.886;6.468;2023-02-11T04:46:49;5.70;99.90
27306;DHT22;14792;50.886;6.468;2023-02-11T04:49:50;5.70;99.90
27306;DHT22;14792;50.886;6.468;2023-02-11T04:52:52;5.70;99.90
27306;DHT22;14792;50.886;6.468;2023-02-11T04:55:53;5.70;99.90
27306;DHT22;14792;50.886;6.468;2023-02-11T04:58:55;5.70;99.90
27306;DHT22;14792;50.886;6.468;2023-02-11T05:01:56;5.70;99.90
27306;DHT22;14792;50.886;6.468;2023-02-11T05:04:58;5.70;99.90
27306;DHT22;14792;50.886;6.468;2023-02-11T05:08:00;5.70;99.90
27306;DHT22;14792;50.886;6.468;2023-02-11T05:11:01;5.70;99.90
27306;DHT22;14792;50.886;6.468;2023-02-11T05:14:03;5.70;99.90
27306;DHT22;14792;50.886;6.468;2023-02-11T05:17:04;5.70;99.90
27306;DHT22;14792;50.886;6.468;2023-02-11T05:20:06;5.70;99.90
27306;DHT22;14792;50.886;6.468;2023-02-11T05:23:08;5.70;99.90
27306;DHT22;14792;50.886;6.468;2023-02-11T05:26:10;5.70;99.90
27306;DHT22;14792;50.886;6.468;2023-02-11T05:29:11;5.70;99.90
27306;DHT22;14792;50.886;6.468;2023-02-11T05:32:12;5.70;99.90
27306;DHT22;14792;50.886;6.468;2023-02-11T05:35:14;5.70;99.90
27306;DHT22;14792;50.886;6.468;2023-02-11T05:38:16;5.60;99.90
27306;DHT22;14792;50.886;6.468;2023-02-11T05:41:17;5.60;99.90
27306;DHT22;14792;50.886;6.468;2023-02-11T05:44:19;5.60;99.90
27306;DHT22;14792;50.886;6.468;2023-02-11T05:47:20;5.70;99.90
27306;DHT22;14792;50.886;6.468;2023-02-11T05:50:22;5.60;99.90
27306;DHT22;14792;50.886;6.468;2023-02-11T05:53:23;5.60;99.90
27306;DHT22;14792;50.886;6.468;2023-02-11T05:56:25;5.70;99.90
27306;DHT22;14792;50.886;6.468;2023-02-11T05:59:27;5.60;99.90
27306;DHT22;14792;50.886;6.468;2023-02-11T06:02:28;5.60;99.90
27306;DHT22;14792;50.886;6.468;2023-02-11T06:05:30;5.60;99.90
27306;DHT22;14792;50.886;6.468;2023-02-11T06:08:32;5.60;99.90
27306;DHT22;14792;50.886;6.468;2023-02-11T06:11:33;5.70;99.90
27306;DHT22;14792;50.886;6.468;2023-02-11T06:14:35;5.70;99.90
27306;DHT22;14792;50.886;6.468;2023-02-11T06:17:36;5.70;99.90
27306;DHT22;14792;50.886;6.468;2023-02-11T06:20:38;5.70;99.90
27306;DHT22;14792;50.886;6.468;2023-02-11T06:23:39;5.70;99.90
27306;DHT22;14792;50.886;6.468;2023-02-11T06:26:41;5.70;99.90
27306;DHT22;14792;50.886;6.468;2023-02-11T06:29:43;5.70;99.90
27306;DHT22;14792;50.886;6.468;2023-02-11T06:32:44;5.70;99.90
27306;DHT22;14792;50.886;6.468;2023-02-11T06:35:46;5.80;99.90
27306;DHT22;14792;50.886;6.468;2023-02-11T06:38:48;5.70;99.90
27306;DHT22;14792;50.886;6.468;2023-02-11T06:41:49;5.80;99.90
27306;DHT22;14792;50.886;6.468;2023-02-11T06:44:51;5.80;99.90
27306;DHT22;14792;50.886;6.468;2023-02-11T06:47:52;5.70;99.90
27306;DHT22;14792;50.886;6.468;2023-02-11T06:50:54;5.80;99.90
27306;DHT22;14792;50.886;6.468;2023-02-11T06:53:55;5.80;99.90
27306;DHT22;14792;50.886;6.468;2023-02-11T06:56:57;5.80;99.90
27306;DHT22;14792;50.886;6.468;2023-02-11T06:59:58;5.80;99.90
27306;DHT22;14792;50.886;6.468;2023-02-11T07:03:27;5.80;99.90
27306;DHT22;14792;50.886;6.468;2023-02-11T07:06:29;5.80;99.90
27306;DHT22;14792;50.886;6.468;2023-02-11T07:09:31;5.80;99.90
27306;DHT22;14792;50.886;6.468;2023-02-11T07:12:32;5.80;99.90
27306;DHT22;14792;50.886;6.468;2023-02-11T07:15:35;5.80;99.90
27306;DHT22;14792;50.886;6.468;2023-02-11T07:18:35;5.80;99.90
27306;DHT22;14792;50.886;6.468;2023-02-11T07:21:37;5.80;99.90
27306;DHT22;14792;50.886;6.468;2023-02-11T07:24:39;5.80;99.90
27306;DHT22;14792;50.886;6.468;2023-02-11T07:27:40;5.80;99.90
27306;DHT22;14792;50.886;6.468;2023-02-11T07:30:42;5.80;99.90
27306;DHT22;14792;50.886;6.468;2023-02-11T07:33:43;5.80;99.90
27306;DHT22;14792;50.886;6.468;2023-02-11T07:36:45;5.80;99.90
27306;DHT22;14792;50.886;6.468;2023-02-11T07:39:46;5.80;99.90
27306;DHT22;14792;50.886;6.468;2023-02-11T07:42:48;5.80;99.90
27306;DHT22;14792;50.886;6.468;2023-02-11T07:45:50;5.80;99.90
27306;DHT22;14792;50.886;6.468;2023-02-11T07:48:51;5.80;99.90
27306;DHT22;14792;50.886;6.468;2023-02-11T07:51:53;5.80;99.90
27306;DHT22;14792;50.886;6.468;2023-02-11T07:54:55;5.80;99.90
27306;DHT22;14792;50.886;6.468;2023-02-11T07:57:56;5.80;99.90
27306;DHT22;14792;50.886;6.468;2023-02-11T08:01:03;5.80;99.90
27306;DHT22;14792;50.886;6.468;2023-02-11T08:04:02;5.80;99.90
27306;DHT22;14792;50.886;6.468;2023-02-11T08:07:04;5.80;99.90
27306;DHT22;14792;50.886;6.468;2023-02-11T08:10:05;5.80;99.90
27306;DHT22;14792;50.886;6.468;2023-02-11T08:13:07;5.80;99.90
27306;DHT22;14792;50.886;6.468;2023-02-11T08:16:09;5.80;99.90
27306;DHT22;14792;50.886;6.468;2023-02-11T08:19:11;5.80;99.90
27306;DHT22;14792;50.886;6.468;2023-02-11T08:22:12;5.80;99.90
27306;DHT22;14792;50.886;6.468;2023-02-11T08:25:13;5.80;99.90
27306;DHT22;14792;50.886;6.468;2023-02-11T08:28:15;5.80;99.90
27306;DHT22;14792;50.886;6.468;2023-02-11T08:31:26;5.90;99.90
27306;DHT22;14792;50.886;6.468;2023-02-11T08:34:24;5.90;99.90
27306;DHT22;14792;50.886;6.468;2023-02-11T08:37:25;5.90;99.90
27306;DHT22;14792;50.886;6.468;2023-02-11T08:40:27;5.90;99.90
27306;DHT22;14792;50.886;6.468;2023-02-11T08:43:29;5.90;99.90
27306;DHT22;14792;50.886;6.468;2023-02-11T08:46:30;5.90;99.90
27306;DHT22;14792;50.886;6.468;2023-02-11T08:49:32;5.90;99.90
27306;DHT22;14792;50.886;6.468;2023-02-11T08:52:34;6.00;99.90
27306;DHT22;14792;50.886;6.468;2023-02-11T08:55:35;6.00;99.90
27306;DHT22;14792;50.886;6.468;2023-02-11T08:58:37;6.00;99.90
27306;DHT22;14792;50.886;6.468;2023-02-11T09:01:38;6.00;99.90
27306;DHT22;14792;50.886;6.468;2023-02-11T09:04:40;6.00;99.90
27306;DHT22;14792;50.886;6.468;2023-02-11T09:07:41;6.00;99.90
27306;DHT22;14792;50.886;6.468;2023-02-11T09:10:43;6.10;99.90
27306;DHT22;14792;50.886;6.468;2023-02-11T09:13:45;6.10;99.90
27306;DHT22;14792;50.886;6.468;2023-02-11T09:16:46;6.20;99.90
27306;DHT22;14792;50.886;6.468;2023-02-11T09:19:48;6.20;99.90
27306;DHT22;14792;50.886;6.468;2023-02-11T09:22:49;6.20;99.90
27306;DHT22;14792;50.886;6.468;2023-02-11T09:25:51;6.20;99.90
27306;DHT22;14792;50.886;6.468;2023-02-11T09:28:52;6.20;99.90
27306;DHT22;14792;50.886;6.468;2023-02-11T09:31:54;6.30;99.90
27306;DHT22;14792;50.886;6.468;2023-02-11T09:34:56;6.30;99.90
27306;DHT22;14792;50.886;6.468;2023-02-11T09:37:57;6.30;99.90
27306;DHT22;14792;50.886;6.468;2023-02-11T09:40:59;6.30;99.90
27306;DHT22;14792;50.886;6.468;2023-02-11T09:44:01;6.30;99.90
27306;DHT22;14792;50.886;6.468;2023-02-11T09:47:03;6.40;99.90
27306;DHT22;14792;50.886;6.468;2023-02-11T09:50:09;6.40;99.90
27306;DHT22;14792;50.886;6.468;2023-02-11T09:53:13;6.50;99.90
27306;DHT22;14792;50.886;6.468;2023-02-11T09:56:13;6.50;99.90
27306;DHT22;14792;50.886;6.468;2023-02-11T09:59:14;6.50;99.90
27306;DHT22;14792;50.886;6.468;2023-02-11T10:02:23;6.50;99.90
27306;DHT22;14792;50.886;6.468;2023-02-11T10:05:43;6.60;99.90
27306;DHT22;14792;50.886;6.468;2023-02-11T10:15:03;6.80;99.90
27306;DHT22;14792;50.886;6.468;2023-02-11T10:18:11;6.70;99.90
27306;DHT22;14792;50.886;6.468;2023-02-11T10:24:18;6.70;99.90
27306;DHT22;14792;50.886;6.468;2023-02-11T10:27:20;6.70;99.90
27306;DHT22;14792;50.886;6.468;2023-02-11T10:30:29;6.70;99.90
27306;DHT22;14792;50.886;6.468;2023-02-11T10:33:35;6.70;99.90
27306;DHT22;14792;50.886;6.468;2023-02-11T10:36:31;6.70;99.90
27306;DHT22;14792;50.886;6.468;2023-02-11T10:39:31;6.70;99.90
27306;DHT22;14792;50.886;6.468;2023-02-11T10:42:33;6.70;99.90
27306;DHT22;14792;50.886;6.468;2023-02-11T10:45:38;6.70;99.90
27306;DHT22;14792;50.886;6.468;2023-02-11T10:48:45;6.70;99.90
27306;DHT22;14792;50.886;6.468;2023-02-11T10:51:46;6.70;99.90
27306;DHT22;14792;50.886;6.468;2023-02-11T10:55:13;6.60;99.90
27306;DHT22;14792;50.886;6.468;2023-02-11T10:58:04;6.60;99.90
27306;DHT22;14792;50.886;6.468;2023-02-11T11:01:06;6.60;99.90
27306;DHT22;14792;50.886;6.468;2023-02-11T11:04:21;6.60;99.90
27306;DHT22;14792;50.886;6.468;2023-02-11T11:11:27;6.60;99.90
27306;DHT22;14792;50.886;6.468;2023-02-11T11:30:30;6.80;99.90
27306;DHT22;14792;50.886;6.468;2023-02-11T11:33:47;6.80;99.90
27306;DHT22;14792;50.886;6.468;2023-02-11T11:36:48;6.90;99.90
27306;DHT22;14792;50.886;6.468;2023-02-11T11:40:06;6.80;99.90
27306;DHT22;14792;50.886;6.468;2023-02-11T11:46:13;6.90;99.90
27306;DHT22;14792;50.886;6.468;2023-02-11T11:49:24;6.90;99.90
27306;DHT22;14792;50.886;6.468;2023-02-11T11:52:32;7.00;99.90
27306;DHT22;14792;50.886;6.468;2023-02-11T11:55:32;6.90;99.90
27306;DHT22;14792;50.886;6.468;2023-02-11T11:58:31;7.00;99.90
27306;DHT22;14792;50.886;6.468;2023-02-11T12:05:12;7.00;99.90
27306;DHT22;14792;50.886;6.468;2023-02-11T12:14:53;7.00;99.90
27306;DHT22;14792;50.886;6.468;2023-02-11T12:18:08;7.10;99.90
27306;DHT22;14792;50.886;6.468;2023-02-11T12:21:31;7.00;99.90
27306;DHT22;14792;50.886;6.468;2023-02-11T12:35:04;7.10;99.90
27306;DHT22;14792;50.886;6.468;2023-02-11T12:38:23;7.20;99.90
27306;DHT22;14792;50.886;6.468;2023-02-11T12:48:02;7.20;99.90
27306;DHT22;14792;50.886;6.468;2023-02-11T12:51:20;7.20;99.90
27306;DHT22;14792;50.886;6.468;2023-02-11T12:54:45;7.20;99.90
27306;DHT22;14792;50.886;6.468;2023-02-11T12:57:41;7.20;99.90
27306;DHT22;14792;50.886;6.468;2023-02-11T13:00:50;7.20;99.90
27306;DHT22;14792;50.886;6.468;2023-02-11T13:03:57;7.20;99.90
27306;DHT22;14792;50.886;6.468;2023-02-11T13:06:58;7.20;99.90
27306;DHT22;14792;50.886;6.468;2023-02-11T13:16:33;7.30;99.90
27306;DHT22;14792;50.886;6.468;2023-02-11T13:19:47;7.40;99.90
27306;DHT22;14792;50.886;6.468;2023-02-11T13:22:53;7.50;99.90
27306;DHT22;14792;50.886;6.468;2023-02-11T13:25:56;7.50;99.90
27306;DHT22;14792;50.886;6.468;2023-02-11T13:29:00;7.50;99.90
27306;DHT22;14792;50.886;6.468;2023-02-11T13:32:27;7.40;99.90
27306;DHT22;14792;50.886;6.468;2023-02-11T13:35:38;7.50;99.90
27306;DHT22;14792;50.886;6.468;2023-02-11T13:38:39;7.50;99.90
27306;DHT22;14792;50.886;6.468;2023-02-11T13:41:41;7.50;99.90
27306;DHT22;14792;50.886;6.468;2023-02-11T13:44:42;7.50;99.90
27306;DHT22;14792;50.886;6.468;2023-02-11T13:47:44;7.50;99.90
27306;DHT22;14792;50.886;6.468;2023-02-11T13:50:46;7.50;99.90
27306;DHT22;14792;50.886;6.468;2023-02-11T13:53:53;7.50;99.90
27306;DHT22;14792;50.886;6.468;2023-02-11T13:57:31;7.50;99.90
27306;DHT22;14792;50.886;6.468;2023-02-11T14:03:37;7.50;99.90
27306;DHT22;14792;50.886;6.468;2023-02-11T14:07:27;7.50;99.90
27306;DHT22;14792;50.886;6.468;2023-02-11T14:10:50;7.50;99.90
27306;DHT22;14792;50.886;6.468;2023-02-11T14:20:04;7.60;99.90
27306;DHT22;14792;50.886;6.468;2023-02-11T14:23:04;7.60;99.90
27306;DHT22;14792;50.886;6.468;2023-02-11T14:29:58;7.60;99.90
27306;DHT22;14792;50.886;6.468;2023-02-11T14:33:07;7.60;99.90
27306;DHT22;14792;50.886;6.468;2023-02-11T14:36:07;7.70;99.90
27306;DHT22;14792;50.886;6.468;2023-02-11T14:39:23;7.80;99.90
27306;DHT22;14792;50.886;6.468;2023-02-11T14:42:23;7.70;99.90
27306;DHT22;14792;50.886;6.468;2023-02-11T14:45:25;7.80;99.90
27306;DHT22;14792;50.886;6.468;2023-02-11T14:48:38;7.80;99.90
27306;DHT22;14792;50.886;6.468;2023-02-11T14:51:31;7.90;99.90
27306;DHT22;14792;50.886;6.468;2023-02-11T14:54:31;7.80;99.90
27306;DHT22;14792;50.886;6.468;2023-02-11T14:57:33;7.80;99.90
27306;DHT22;14792;50.886;6.468;2023-02-11T15:00:34;7.80;99.90
27306;DHT22;14792;50.886;6.468;2023-02-11T15:03:39;7.80;99.90
27306;DHT22;14792;50.886;6.468;2023-02-11T15:07:14;7.90;99.90
27306;DHT22;14792;50.886;6.468;2023-02-11T15:10:20;7.80;99.90
27306;DHT22;14792;50.886;6.468;2023-02-11T15:13:18;7.80;99.90
27306;DHT22;14792;50.886;6.468;2023-02-11T15:16:19;7.80;99.90
27306;DHT22;14792;50.886;6.468;2023-02-11T15:19:45;7.70;99.90
27306;DHT22;14792;50.886;6.468;2023-02-11T15:22:33;7.80;99.90
27306;DHT22;14792;50.886;6.468;2023-02-11T15:25:41;7.80;99.90
27306;DHT22;14792;50.886;6.468;2023-02-11T15:28:36;7.80;99.90
27306;DHT22;14792;50.886;6.468;2023-02-11T15:31:38;7.70;99.90
27306;DHT22;14792;50.886;6.468;2023-02-11T15:34:40;7.80;99.90
27306;DHT22;14792;50.886;6.468;2023-02-11T15:37:42;7.80;99.90
27306;DHT22;14792;50.886;6.468;2023-02-11T15:40:59;7.80;99.90
27306;DHT22;14792;50.886;6.468;2023-02-11T15:43:59;7.80;99.90
27306;DHT22;14792;50.886;6.468;2023-02-11T15:47:01;7.80;99.90
27306;DHT22;14792;50.886;6.468;2023-02-11T15:50:03;7.80;99.90
27306;DHT22;14792;50.886;6.468;2023-02-11T15:53:51;7.80;99.90
27306;DHT22;14792;50.886;6.468;2023-02-11T15:56:19;7.90;99.90
27306;DHT22;14792;50.886;6.468;2023-02-11T15:59:26;7.90;99.90
27306;DHT22;14792;50.886;6.468;2023-02-11T16:02:32;7.90;99.90
27306;DHT22;14792;50.886;6.468;2023-02-11T16:05:35;7.90;99.90
27306;DHT22;14792;50.886;6.468;2023-02-11T16:08:35;7.90;99.90
27306;DHT22;14792;50.886;6.468;2023-02-11T16:14:47;7.90;99.90
27306;DHT22;14792;50.886;6.468;2023-02-11T16:17:49;7.90;99.90
27306;DHT22;14792;50.886;6.468;2023-02-11T16:20:52;7.90;99.90
27306;DHT22;14792;50.886;6.468;2023-02-11T16:23:53;7.90;99.90
27306;DHT22;14792;50.886;6.468;2023-02-11T16:26:56;7.90;99.90
27306;DHT22;14792;50.886;6.468;2023-02-11T16:29:56;7.90;99.90
27306;DHT22;14792;50.886;6.468;2023-02-11T16:32:58;7.90;99.90
27306;DHT22;14792;50.886;6.468;2023-02-11T16:35:59;7.80;99.90
27306;DHT22;14792;50.886;6.468;2023-02-11T16:39:01;7.80;99.90
27306;DHT22;14792;50.886;6.468;2023-02-11T16:42:03;7.80;99.90
27306;DHT22;14792;50.886;6.468;2023-02-11T16:45:04;7.80;99.90
27306;DHT22;14792;50.886;6.468;2023-02-11T16:48:06;7.80;99.90
27306;DHT22;14792;50.886;6.468;2023-02-11T16:51:08;7.90;99.90
27306;DHT22;14792;50.886;6.468;2023-02-11T16:54:11;7.80;99.90
27306;DHT22;14792;50.886;6.468;2023-02-11T17:00:14;7.80;99.90
27306;DHT22;14792;50.886;6.468;2023-02-11T17:03:15;7.80;99.90
27306;DHT22;14792;50.886;6.468;2023-02-11T17:06:15;7.80;99.90
27306;DHT22;14792;50.886;6.468;2023-02-11T17:09:18;7.80;99.90
27306;DHT22;14792;50.886;6.468;2023-02-11T17:12:19;7.80;99.90
27306;DHT22;14792;50.886;6.468;2023-02-11T17:15:20;7.80;99.90
27306;DHT22;14792;50.886;6.468;2023-02-11T17:18:22;7.80;99.90
27306;DHT22;14792;50.886;6.468;2023-02-11T17:21:23;7.70;99.90
27306;DHT22;14792;50.886;6.468;2023-02-11T17:24:25;7.80;99.90
27306;DHT22;14792;50.886;6.468;2023-02-11T17:27:26;7.80;99.90
27306;DHT22;14792;50.886;6.468;2023-02-11T17:30:28;7.70;99.90
27306;DHT22;14792;50.886;6.468;2023-02-11T17:33:30;7.70;99.90
27306;DHT22;14792;50.886;6.468;2023-02-11T17:36:31;7.70;99.90
27306;DHT22;14792;50.886;6.468;2023-02-11T17:39:36;7.70;99.90
27306;DHT22;14792;50.886;6.468;2023-02-11T17:42:34;7.70;99.90
27306;DHT22;14792;50.886;6.468;2023-02-11T17:45:40;7.70;99.90
27306;DHT22;14792;50.886;6.468;2023-02-11T17:48:41;7.70;99.90
27306;DHT22;14792;50.886;6.468;2023-02-11T17:51:43;7.70;99.90
27306;DHT22;14792;50.886;6.468;2023-02-11T17:54:44;7.60;99.90
27306;DHT22;14792;50.886;6.468;2023-02-11T17:57:46;7.60;99.90
27306;DHT22;14792;50.886;6.468;2023-02-11T18:00:48;7.60;99.90
27306;DHT22;14792;50.886;6.468;2023-02-11T18:03:49;7.70;99.90
27306;DHT22;14792;50.886;6.468;2023-02-11T18:06:51;7.70;99.90
27306;DHT22;14792;50.886;6.468;2023-02-11T18:09:52;7.70;99.90
27306;DHT22;14792;50.886;6.468;2023-02-11T18:12:54;7.70;99.90
27306;DHT22;14792;50.886;6.468;2023-02-11T18:16:02;7.70;99.90
27306;DHT22;14792;50.886;6.468;2023-02-11T18:19:04;7.60;99.90
27306;DHT22;14792;50.886;6.468;2023-02-11T18:22:05;7.60;99.90
27306;DHT22;14792;50.886;6.468;2023-02-11T18:25:07;7.60;99.90
27306;DHT22;14792;50.886;6.468;2023-02-11T18:28:08;7.60;99.90
27306;DHT22;14792;50.886;6.468;2023-02-11T18:31:10;7.60;99.90
27306;DHT22;14792;50.886;6.468;2023-02-11T18:34:11;7.70;99.90
27306;DHT22;14792;50.886;6.468;2023-02-11T18:37:13;7.60;99.90
27306;DHT22;14792;50.886;6.468;2023-02-11T18:40:14;7.60;99.90
27306;DHT22;14792;50.886;6.468;2023-02-11T18:43:17;7.60;99.90
27306;DHT22;14792;50.886;6.468;2023-02-11T18:46:18;7.60;99.90
27306;DHT22;14792;50.886;6.468;2023-02-11T18:49:19;7.60;99.90
27306;DHT22;14792;50.886;6.468;2023-02-11T18:52:21;7.60;99.90
27306;DHT22;14792;50.886;6.468;2023-02-11T18:55:27;7.60;99.90
27306;DHT22;14792;50.886;6.468;2023-02-11T18:58:28;7.50;99.90
27306;DHT22;14792;50.886;6.468;2023-02-11T19:01:31;7.60;99.90
27306;DHT22;14792;50.886;6.468;2023-02-11T19:04:33;7.60;99.90
27306;DHT22;14792;50.886;6.468;2023-02-11T19:07:33;7.60;99.90
27306;DHT22;14792;50.886;6.468;2023-02-11T19:10:38;7.60;99.90
27306;DHT22;14792;50.886;6.468;2023-02-11T19:13:36;7.60;99.90
27306;DHT22;14792;50.886;6.468;2023-02-11T19:16:41;7.60;99.90
27306;DHT22;14792;50.886;6.468;2023-02-11T19:19:39;7.50;99.90
27306;DHT22;14792;50.886;6.468;2023-02-11T19:22:41;7.40;99.90
27306;DHT22;14792;50.886;6.468;2023-02-11T19:25:46;7.50;99.90
27306;DHT22;14792;50.886;6.468;2023-02-11T19:28:47;7.40;99.90
27306;DHT22;14792;50.886;6.468;2023-02-11T19:31:49;7.40;99.90
27306;DHT22;14792;50.886;6.468;2023-02-11T19:34:50;7.50;99.90
27306;DHT22;14792;50.886;6.468;2023-02-11T19:37:52;7.40;99.90
27306;DHT22;14792;50.886;6.468;2023-02-11T19:40:56;7.40;99.90
27306;DHT22;14792;50.886;6.468;2023-02-11T19:43:58;7.40;99.90
27306;DHT22;14792;50.886;6.468;2023-02-11T19:47:00;7.40;99.90
27306;DHT22;14792;50.886;6.468;2023-02-11T19:50:02;7.40;99.90
27306;DHT22;14792;50.886;6.468;2023-02-11T19:53:03;7.40;99.90
27306;DHT22;14792;50.886;6.468;2023-02-11T19:56:04;7.30;99.90
27306;DHT22;14792;50.886;6.468;2023-02-11T19:59:06;7.30;99.90
27306;DHT22;14792;50.886;6.468;2023-02-11T20:02:11;7.20;99.90
27306;DHT22;14792;50.886;6.468;2023-02-11T20:05:12;7.20;99.90
27306;DHT22;14792;50.886;6.468;2023-02-11T20:08:14;7.20;99.90
27306;DHT22;14792;50.886;6.468;2023-02-11T20:11:15;7.30;99.90
27306;DHT22;14792;50.886;6.468;2023-02-11T20:14:17;7.20;99.90
27306;DHT22;14792;50.886;6.468;2023-02-11T20:17:18;7.20;99.90
27306;DHT22;14792;50.886;6.468;2023-02-11T20:20:20;7.20;99.90
27306;DHT22;14792;50.886;6.468;2023-02-11T20:23:22;7.20;99.90
27306;DHT22;14792;50.886;6.468;2023-02-11T20:26:25;7.20;99.90
27306;DHT22;14792;50.886;6.468;2023-02-11T20:29:25;7.20;99.90
27306;DHT22;14792;50.886;6.468;2023-02-11T20:32:26;7.10;99.90
27306;DHT22;14792;50.886;6.468;2023-02-11T20:35:28;7.10;99.90
27306;DHT22;14792;50.886;6.468;2023-02-11T20:38:30;7.00;99.90
27306;DHT22;14792;50.886;6.468;2023-02-11T20:41:32;6.90;99.90
27306;DHT22;14792;50.886;6.468;2023-02-11T20:44:33;6.90;99.90
27306;DHT22;14792;50.886;6.468;2023-02-11T20:47:35;7.00;99.90
27306;DHT22;14792;50.886;6.468;2023-02-11T20:50:36;7.00;99.90
27306;DHT22;14792;50.886;6.468;2023-02-11T20:53:38;6.90;99.90
27306;DHT22;14792;50.886;6.468;2023-02-11T20:56:39;6.90;99.90
27306;DHT22;14792;50.886;6.468;2023-02-11T20:59:41;6.90;99.90
27306;DHT22;14792;50.886;6.468;2023-02-11T21:02:42;6.90;99.90
27306;DHT22;14792;50.886;6.468;2023-02-11T21:05:44;6.90;99.90
27306;DHT22;14792;50.886;6.468;2023-02-11T21:08:46;6.90;99.90
27306;DHT22;14792;50.886;6.468;2023-02-11T21:11:47;6.90;99.90
27306;DHT22;14792;50.886;6.468;2023-02-11T21:14:49;6.90;99.90
27306;DHT22;14792;50.886;6.468;2023-02-11T21:17:50;7.00;99.90
27306;DHT22;14792;50.886;6.468;2023-02-11T21:20:55;7.00;99.90